Time;durP1;ratioP1;P1;durP2;ratioP2;P2;SDS_P1;SDS_P2;PMS_P1;PMS_P2;Temp;Humidity;BMP_temperature;BMP_pressure;BME280_temperature;BME280_humidity;BME280_pressure;Samples;Min_cycle;Max_cycle;Signal;HPM_P1;HPM_P2
2023/04/02 04:22:32;;;;;;;1.73;0.93;;;;;;;7.75;100.00;99660.44;5089667;28;20401;-64
2023/04/02 04:25:28;;;;;;;3.50;1.00;;;;;;;7.78;100.00;99662.78;5089074;28;20055;-64
2023/04/02 04:28:23;;;;;;;1.42;1.13;;;;;;;7.81;100.00;99665.06;5087953;28;20062;-64
2023/04/02 04:31:07;;;;;;;4.13;1.40;;;;;;;7.78;100.00;99654.81;5088226;28;20493;-64
2023/04/02 04:33:46;;;;;;;1.67;1.23;;;;;;;7.69;100.00;99655.81;5089387;28;20043;-64
2023/04/02 04:36:28;;;;;;;1.40;1.10;;;;;;;7.77;100.00;99662.94;5087935;28;20028;-64
2023/04/02 04:39:06;;;;;;;2.10;1.42;;;;;;;7.81;100.00;99673.03;5087785;28;20040;-65
2023/04/02 04:41:38;;;;;;;6.38;1.45;;;;;;;7.82;100.00;99682.66;5087801;28;20067;-64
2023/04/02 04:44:22;;;;;;;2.88;1.20;;;;;;;7.85;100.00;99687.63;5087953;28;20060;-64
2023/04/02 04:47:12;;;;;;;2.47;1.40;;;;;;;7.88;100.00;99691.75;5087555;28;20129;-64
2023/04/02 04:49:43;;;;;;;1.92;1.20;;;;;;;7.82;100.00;99695.06;5089128;28;20095;-64
2023/04/02 04:52:45;;;;;;;2.25;1.15;;;;;;;7.87;100.00;99700.69;5087702;28;20020;-64
2023/04/02 04:55:36;;;;;;;1.33;1.23;;;;;;;7.91;100.00;99706.50;5009940;28;20562;-64
2023/04/02 04:58:13;;;;;;;1.48;1.20;;;;;;;7.96;100.00;99704.19;5084732;28;20071;-64
2023/04/02 05:00:54;;;;;;;1.52;1.30;;;;;;;7.95;100.00;99715.75;5088803;28;20040;-64
2023/04/02 05:03:28;;;;;;;3.08;1.10;;;;;;;7.95;100.00;99713.09;5088810;28;20032;-64
2023/04/02 05:06:23;;;;;;;3.13;1.75;;;;;;;7.93;100.00;99717.75;5087368;28;20036;-64
2023/04/02 05:08:53;;;;;;;2.63;1.77;;;;;;;7.96;100.00;99720.09;5074749;28;20509;-64
2023/04/02 05:11:26;;;;;;;1.65;1.08;;;;;;;7.97;100.00;99724.41;5087371;28;20056;-64
2023/04/02 05:14:01;;;;;;;2.53;1.85;;;;;;;7.93;100.00;99712.47;5087294;28;20031;-64
2023/04/02 05:16:31;;;;;;;6.53;1.85;;;;;;;7.99;100.00;99725.88;5087439;28;20036;-64
2023/04/02 05:19:04;;;;;;;1.67;1.33;;;;;;;7.95;100.00;99739.63;5086986;28;20055;-64
2023/04/02 05:21:43;;;;;;;3.88;1.55;;;;;;;8.02;100.00;99738.81;5086948;28;20481;-63
2023/04/02 05:24:37;;;;;;;3.40;1.70;;;;;;;7.98;100.00;99740.13;5087168;28;20028;-64
2023/04/02 05:27:19;;;;;;;2.17;1.95;;;;;;;7.98;100.00;99749.91;5086770;28;20028;-64
2023/04/02 05:29:54;;;;;;;10.98;3.70;;;;;;;7.93;100.00;99746.94;5087051;28;20032;-64
2023/04/02 05:32:28;;;;;;;2.92;1.90;;;;;;;7.93;100.00;99749.59;5083388;28;20028;-64
2023/04/02 05:34:56;;;;;;;4.03;2.67;;;;;;;7.97;100.00;99753.56;5073621;28;20044;-64
2023/04/02 05:37:26;;;;;;;1.67;1.10;;;;;;;7.94;100.00;99764.50;5073019;28;20040;-64
2023/04/02 05:39:56;;;;;;;6.75;1.85;;;;;;;7.96;100.00;99762.53;5073582;28;20029;-64
2023/04/02 05:42:31;;;;;;;3.47;1.73;;;;;;;8.03;100.00;99763.50;5073257;28;20434;-64
2023/04/02 05:45:06;;;;;;;2.13;1.75;;;;;;;8.03;100.00;99764.34;5073230;28;20043;-64
2023/04/02 05:47:33;;;;;;;7.95;1.95;;;;;;;8.01;100.00;99776.09;5074288;28;20039;-64
2023/04/02 05:50:04;;;;;;;4.70;2.03;;;;;;;8.03;100.00;99769.63;5073495;28;20090;-64
2023/04/02 05:52:35;;;;;;;1.88;1.30;;;;;;;8.04;100.00;99778.44;5073111;28;20123;-64
2023/04/02 05:55:03;;;;;;;3.42;1.50;;;;;;;8.04;100.00;99779.25;5073077;28;20044;-64
2023/04/02 05:57:33;;;;;;;3.10;1.70;;;;;;;8.04;100.00;99778.44;5072522;28;20565;-64
2023/04/02 06:00:06;;;;;;;3.35;1.50;;;;;;;8.05;100.00;99785.38;5073016;28;20036;-64
2023/04/02 06:02:43;;;;;;;3.10;1.67;;;;;;;8.05;100.00;99790.69;5074227;28;20079;-64
2023/04/02 06:05:16;;;;;;;4.53;1.77;;;;;;;8.07;100.00;99796.66;5072871;28;20063;-63
2023/04/02 06:08:05;;;;;;;3.35;1.90;;;;;;;8.09;100.00;99794.66;5072438;28;20497;-64
2023/04/02 06:10:34;;;;;;;4.10;1.70;;;;;;;8.08;100.00;99800.94;5072743;28;20063;-63
2023/04/02 06:13:15;;;;;;;3.22;1.80;;;;;;;8.09;100.00;99802.63;5072709;28;20123;-64
2023/04/02 06:15:42;;;;;;;4.40;2.17;;;;;;;8.21;100.00;99808.38;5072728;28;20451;-69
2023/04/02 06:18:22;;;;;;;3.63;1.73;;;;;;;8.22;100.00;99807.41;5067807;28;20114;-62
2023/04/02 06:20:50;;;;;;;4.32;1.92;;;;;;;8.21;100.00;99809.22;5072339;28;20024;-64
2023/04/02 06:23:32;;;;;;;3.25;1.98;;;;;;;8.21;100.00;99811.03;5072461;28;20396;-64
2023/04/02 06:26:06;;;;;;;6.53;2.10;;;;;;;8.28;100.00;99820.84;5072544;28;20118;-64
2023/04/02 06:28:46;;;;;;;7.05;2.17;;;;;;;8.29;100.00;99826.97;5055601;28;20099;-64
2023/04/02 06:31:39;;;;;;;6.78;2.63;;;;;;;8.24;100.00;99822.16;5072512;28;20112;-67
2023/04/02 06:34:15;;;;;;;4.45;2.08;;;;;;;8.25;100.00;99836.25;5067236;28;20071;-67
2023/04/02 06:36:49;;;;;;;3.45;2.42;;;;;;;8.27;100.00;99832.44;5056578;28;20044;-66
2023/04/02 06:39:21;;;;;;;4.57;2.15;;;;;;;8.32;100.00;99843.38;5072389;28;20389;-67
2023/04/02 06:42:03;;;;;;;3.10;1.70;;;;;;;8.33;100.00;99850.34;5072231;28;20032;-67
2023/04/02 06:44:48;;;;;;;3.75;2.38;;;;;;;8.25;100.00;99831.78;5072414;28;20428;-66
2023/04/02 06:47:43;;;;;;;4.07;2.03;;;;;;;8.31;100.00;99843.53;5072803;28;20101;-67
2023/04/02 06:50:23;;;;;;;7.93;2.28;;;;;;;8.29;100.00;99857.00;5073350;28;20073;-67
2023/04/02 06:52:56;;;;;;;9.57;4.00;;;;;;;8.33;100.00;99866.25;5071976;28;20123;-67
2023/04/02 06:55:38;;;;;;;7.50;2.17;;;;;;;8.40;100.00;99872.56;5071891;28;20546;-67
2023/04/02 06:58:04;;;;;;;7.88;2.38;;;;;;;8.41;100.00;99868.94;5071610;28;20029;-67
2023/04/02 07:00:37;;;;;;;5.20;2.65;;;;;;;8.46;100.00;99875.56;5072009;28;20036;-67
2023/04/02 07:03:07;;;;;;;4.60;2.35;;;;;;;8.42;100.00;99883.88;5072175;28;20040;-67
2023/04/02 07:05:33;;;;;;;7.13;2.30;;;;;;;8.40;100.00;99883.19;5071611;28;20127;-67
2023/04/02 07:07:59;;;;;;;8.88;3.55;;;;;;;8.42;100.00;99891.84;5072655;28;20120;-67
2023/04/02 07:10:25;;;;;;;5.05;2.58;;;;;;;8.38;100.00;99885.19;5071523;28;20040;-68
2023/04/02 07:12:50;;;;;;;5.18;2.58;;;;;;;8.55;100.00;99886.00;5071542;28;20041;-68
2023/04/02 07:15:18;;;;;;;6.57;2.65;;;;;;;8.57;100.00;99888.50;5072349;28;20033;-67
2023/04/02 07:17:45;;;;;;;8.43;2.45;;;;;;;8.58;100.00;99892.81;5072379;28;20123;-67
2023/04/02 07:20:29;;;;;;;4.28;1.88;;;;;;;8.53;100.00;99895.94;5071276;28;20109;-67
2023/04/02 07:22:57;;;;;;;7.47;2.42;;;;;;;8.51;100.00;99900.63;5089247;28;20032;-66
2023/04/02 07:25:25;;;;;;;5.40;2.38;;;;;;;8.55;100.00;99903.78;5093042;28;20048;-67
2023/04/02 07:27:50;;;;;;;;;;;;;;;8.50;100.00;99906.91;5092739;28;20059;-67
2023/04/02 07:30:16;;;;;;;4.28;2.13;;;;;;;8.58;100.00;99906.06;5092631;28;19912;-67
2023/04/02 07:32:42;;;;;;;7.22;2.90;;;;;;;8.60;100.00;99914.69;5092717;28;20108;-67
2023/04/02 07:35:09;;;;;;;4.70;2.42;;;;;;;8.72;100.00;99923.13;5092556;28;20043;-67
2023/04/02 07:37:35;;;;;;;9.63;2.57;;;;;;;8.76;100.00;99924.47;5092302;28;20081;-67
2023/04/02 07:40:01;;;;;;;6.38;2.15;;;;;;;8.82;100.00;99926.47;5092392;28;20028;-67
2023/04/02 07:42:26;;;;;;;4.05;2.42;;;;;;;8.88;100.00;99926.59;5092568;28;20027;-67
2023/04/02 07:44:52;;;;;;;3.22;2.28;;;;;;;8.90;100.00;99923.78;5081102;28;20048;-66
2023/04/02 07:47:17;;;;;;;3.97;2.42;;;;;;;8.92;100.00;99935.03;5085898;28;20043;-67
2023/04/02 07:49:42;;;;;;;6.75;2.70;;;;;;;9.00;100.00;99942.16;5092371;28;20036;-67
2023/04/02 07:52:08;;;;;;;4.25;2.15;;;;;;;9.04;100.00;99938.19;5068710;28;20361;-67
2023/04/02 07:54:34;;;;;;;5.40;2.50;;;;;;;9.06;100.00;99942.31;5072029;28;20051;-67
2023/04/02 07:57:00;;;;;;;7.53;2.47;;;;;;;9.10;100.00;99948.13;5071612;28;20109;-67
2023/04/02 07:59:25;;;;;;;5.75;1.77;;;;;;;9.14;100.00;99957.41;5072206;28;20091;-67
2023/04/02 08:01:51;;;;;;;3.67;2.38;;;;;;;9.17;100.00;99959.72;5072206;28;20120;-67
2023/04/02 08:04:20;;;;;;;4.15;2.20;;;;;;;9.23;100.00;99969.66;5072036;28;20129;-67
2023/04/02 08:06:46;;;;;;;4.07;2.45;;;;;;;9.34;100.00;99971.13;5071766;28;20119;-67
2023/04/02 08:09:13;;;;;;;5.07;2.40;;;;;;;9.37;100.00;99971.59;5071721;28;20040;-67
2023/04/02 08:11:39;;;;;;;3.35;1.85;;;;;;;9.52;100.00;99975.22;5071763;28;20044;-66
2023/04/02 08:14:05;;;;;;;5.18;1.98;;;;;;;9.69;100.00;99978.63;5071882;28;20435;-66
2023/04/02 08:16:51;;;;;;;3.15;2.00;;;;;;;9.66;100.00;99978.97;5071863;28;20040;-67
2023/04/02 08:19:17;;;;;;;3.08;2.08;;;;;;;9.69;100.00;99981.28;5071612;28;20040;-67
2023/04/02 08:21:43;;;;;;;2.83;1.60;;;;;;;9.82;100.00;99982.53;5071780;28;20504;-67
2023/04/02 08:24:08;;;;;;;3.58;1.88;;;;;;;9.83;100.00;99987.69;5071734;28;20040;-65
2023/04/02 08:26:35;;;;;;;8.85;2.17;;;;;;;9.97;100.00;99983.44;5071602;28;20074;-65
2023/04/02 08:29:00;;;;;;;2.95;2.10;;;;;;;9.98;100.00;99985.97;5071430;28;20067;-65
2023/04/02 08:31:26;;;;;;;2.72;1.70;;;;;;;10.11;100.00;99995.19;5071516;28;20076;-66
2023/04/02 08:33:52;;;;;;;3.75;1.42;;;;;;;10.17;100.00;99994.47;5071666;28;20048;-65
2023/04/02 08:36:23;;;;;;;4.20;1.83;;;;;;;10.31;100.00;100004.41;5071626;28;20040;-66
2023/04/02 08:38:49;;;;;;;3.97;1.55;;;;;;;10.35;100.00;100007.53;5071321;28;20045;-65
2023/04/02 08:41:29;;;;;;;4.43;1.95;;;;;;;10.46;100.00;100005.28;5068075;28;20071;-67
2023/04/02 08:44:23;;;;;;;5.55;1.63;;;;;;;10.65;100.00;100011.13;5050162;28;20136;-66
2023/04/02 08:47:09;;;;;;;6.47;1.40;;;;;;;10.89;100.00;100013.59;5050687;28;20040;-66
2023/04/02 08:49:38;;;;;;;1.45;1.35;;;;;;;11.03;100.00;100015.44;5055023;28;20473;-66
2023/04/02 08:52:04;;;;;;;3.72;1.83;;;;;;;11.11;99.21;100020.69;5070987;28;20135;-66
2023/04/02 08:54:38;;;;;;;2.95;2.00;;;;;;;11.41;99.34;100028.72;5071477;28;20116;-67
2023/04/02 08:57:18;;;;;;;2.58;1.27;;;;;;;11.33;96.63;100034.94;5071186;28;20044;-66
2023/04/02 08:59:44;;;;;;;2.45;1.52;;;;;;;11.20;95.03;100028.59;5071473;28;20043;-66
2023/04/02 09:02:28;;;;;;;1.77;1.40;;;;;;;11.48;94.52;100032.31;5071459;28;20028;-66
2023/04/02 09:04:56;;;;;;;2.10;1.15;;;;;;;11.41;95.06;100036.72;5071359;28;20040;-67
2023/04/02 09:07:22;;;;;;;2.50;1.40;;;;;;;11.59;96.53;100039.81;5071591;28;20051;-67
2023/04/02 09:09:49;;;;;;;1.33;1.20;;;;;;;11.74;94.91;100047.03;5075105;28;20032;-67
2023/04/02 09:12:19;;;;;;;1.63;1.20;;;;;;;11.82;94.79;100046.94;5075009;28;20037;-66
2023/04/02 09:14:55;;;;;;;3.17;1.27;;;;;;;11.84;94.92;100048.41;5073798;28;20773;-66
2023/04/02 09:17:25;;;;;;;1.65;1.10;;;;;;;11.88;92.56;100057.69;5074917;28;20397;-67
2023/04/02 09:19:57;;;;;;;2.67;1.20;;;;;;;11.83;89.24;100051.25;5073783;28;20068;-66
2023/04/02 09:22:31;;;;;;;1.38;0.88;;;;;;;11.85;88.92;100054.56;5074772;28;20040;-67
2023/04/02 09:24:59;;;;;;;2.20;1.00;;;;;;;11.95;89.11;100063.94;5074924;28;20107;-66
2023/04/02 09:27:28;;;;;;;1.73;0.88;;;;;;;12.16;90.78;100065.00;5074341;28;20031;-66
2023/04/02 09:30:21;;;;;;;1.80;1.10;;;;;;;12.26;90.61;100072.69;5074838;28;20044;-66
2023/04/02 09:32:56;;;;;;;3.00;1.20;;;;;;;12.57;90.18;100065.25;5074811;28;20117;-67
2023/04/02 09:35:25;;;;;;;1.60;1.10;;;;;;;12.75;87.10;100068.28;5074606;28;20490;-67
2023/04/02 09:38:08;;;;;;;2.08;0.80;;;;;;;12.82;86.65;100073.69;5074314;28;20482;-65
2023/04/02 09:40:52;;;;;;;0.65;0.65;;;;;;;13.07;86.60;100082.16;5074581;28;20064;-67
2023/04/02 09:43:23;;;;;;;0.57;0.57;;;;;;;13.25;83.84;100069.16;5074541;28;20129;-65
2023/04/02 09:46:21;;;;;;;0.65;0.60;;;;;;;13.16;77.86;100086.31;5074346;28;20070;-66
2023/04/02 09:48:52;;;;;;;0.85;0.68;;;;;;;13.68;81.34;100085.06;5074085;28;20036;-66
2023/04/02 09:51:32;;;;;;;0.82;0.70;;;;;;;14.10;77.02;100091.25;5074322;28;20052;-66
2023/04/02 09:54:03;;;;;;;1.50;0.90;;;;;;;14.48;81.39;100090.81;5074373;28;20036;-67
2023/04/02 09:56:34;;;;;;;0.75;0.73;;;;;;;14.82;78.06;100081.78;5074158;28;20040;-66
2023/04/02 09:59:11;;;;;;;1.00;0.90;;;;;;;15.17;76.12;100090.47;5073914;28;20028;-66
2023/04/02 10:01:56;;;;;;;0.60;0.52;;;;;;;15.53;73.24;100090.03;5074183;28;20039;-66
2023/04/02 10:04:46;;;;;;;0.47;0.43;;;;;;;15.55;63.66;100093.31;5074277;28;20032;-66
2023/04/02 10:07:33;;;;;;;0.73;0.65;;;;;;;15.77;67.97;100093.09;5073978;28;20437;-67
2023/04/02 10:10:21;;;;;;;0.70;0.57;;;;;;;15.43;66.04;100101.16;5074076;28;20036;-66
2023/04/02 10:13:12;;;;;;;0.80;0.60;;;;;;;14.73;65.59;100099.91;5074013;28;20098;-66
2023/04/02 10:16:02;;;;;;;1.52;0.90;;;;;;;15.20;69.22;100100.78;5054357;28;20101;-65
2023/04/02 10:18:43;;;;;;;1.27;0.75;;;;;;;15.57;71.76;100101.16;5073540;28;20052;-66
2023/04/02 10:21:14;;;;;;;0.93;0.75;;;;;;;16.13;70.09;100100.63;5073790;28;20443;-66
2023/04/02 10:23:40;;;;;;;1.42;1.05;;;;;;;16.01;72.54;100108.50;5073912;28;20072;-66
2023/04/02 10:26:20;;;;;;;0.57;0.47;;;;;;;15.87;69.38;100099.69;5073643;28;20028;-66
2023/04/02 10:28:59;;;;;;;1.52;0.50;;;;;;;15.27;65.57;100111.53;5073565;28;20127;-66
2023/04/02 10:31:32;;;;;;;2.40;1.10;;;;;;;14.42;70.45;100115.69;5073530;28;20677;-66
2023/04/02 10:34:01;;;;;;;0.52;0.52;;;;;;;14.79;70.58;100123.22;5073561;28;20033;-66
2023/04/02 10:36:50;;;;;;;0.73;0.68;;;;;;;14.19;75.14;100124.88;5073347;28;20044;-66
2023/04/02 10:39:32;;;;;;;1.33;0.82;;;;;;;14.37;72.82;100127.00;5073393;28;20102;-66
2023/04/02 10:42:24;;;;;;;2.40;0.85;;;;;;;14.21;72.80;100121.97;5073316;28;20028;-66
2023/04/02 10:44:52;;;;;;;2.42;0.60;;;;;;;14.18;73.62;100131.25;5073224;28;20036;-66
2023/04/02 10:47:27;;;;;;;1.05;0.63;;;;;;;14.10;71.50;100139.47;5072788;28;20048;-66
2023/04/02 10:50:25;;;;;;;1.33;0.60;;;;;;;13.99;73.59;100140.03;5073111;28;20044;-66
2023/04/02 10:52:59;;;;;;;0.70;0.43;;;;;;;13.84;73.34;100143.66;5073159;28;20036;-66
2023/04/02 10:55:30;;;;;;;0.70;0.60;;;;;;;13.71;73.83;100138.22;5073032;28;20074;-66
2023/04/02 10:58:02;;;;;;;0.85;0.68;;;;;;;13.51;76.27;100142.63;5072737;28;20675;-66
2023/04/02 11:00:32;;;;;;;0.88;0.60;;;;;;;13.15;76.09;100142.69;5073113;28;20076;-66
2023/04/02 11:03:12;;;;;;;1.65;0.75;;;;;;;13.31;73.94;100147.81;5071682;28;20039;-66
2023/04/02 11:05:52;;;;;;;0.82;0.60;;;;;;;13.25;76.64;100151.25;5072822;28;20047;-67
2023/04/02 11:08:25;;;;;;;1.15;0.60;;;;;;;13.33;75.10;100152.97;5072521;28;20040;-66
2023/04/02 11:11:00;;;;;;;0.57;0.47;;;;;;;13.28;73.69;100149.00;5072789;28;20067;-66
2023/04/02 11:13:34;;;;;;;1.05;0.50;;;;;;;13.22;77.95;100157.78;5072713;28;20040;-66
2023/04/02 11:15:59;;;;;;;0.50;0.50;;;;;;;13.01;74.98;100160.47;5072806;28;20075;-66
2023/04/02 11:18:34;;;;;;;0.70;0.50;;;;;;;12.99;74.64;100162.50;5072236;28;20119;-66
2023/04/02 11:21:29;;;;;;;0.40;0.40;;;;;;;12.78;76.34;100168.66;5072577;28;20370;-65
2023/04/02 11:23:58;;;;;;;1.42;0.60;;;;;;;12.84;76.04;100167.06;5065567;28;20672;-66
2023/04/02 11:26:41;;;;;;;0.80;0.50;;;;;;;12.82;73.05;100169.94;5072293;28;20373;-67
2023/04/02 11:29:21;;;;;;;0.60;0.60;;;;;;;12.86;75.03;100175.75;5072129;28;20101;-66
2023/04/02 11:31:48;;;;;;;1.63;0.50;;;;;;;12.91;77.03;100178.66;5071722;28;20040;-66
2023/04/02 11:34:39;;;;;;;0.82;0.75;;;;;;;12.99;77.77;100184.72;5072357;28;20076;-66
2023/04/02 11:37:27;;;;;;;0.93;0.60;;;;;;;13.05;78.91;100180.47;5071918;28;20036;-66
2023/04/02 11:39:56;;;;;;;0.77;0.77;;;;;;;13.11;81.79;100187.72;5072317;28;20040;-67
2023/04/02 11:42:35;;;;;;;0.80;0.75;;;;;;;13.19;79.33;100190.25;5072313;28;20025;-67
2023/04/02 11:45:27;;;;;;;1.20;0.73;;;;;;;13.29;81.55;100185.44;5054493;28;20633;-66
2023/04/02 11:47:58;;;;;;;0.70;0.70;;;;;;;13.49;77.37;100187.44;5051826;28;20036;-67
2023/04/02 11:50:34;;;;;;;0.52;0.52;;;;;;;13.44;79.61;100187.22;5052041;28;20032;-67
2023/04/02 11:53:19;;;;;;;1.02;0.60;;;;;;;13.54;77.84;100190.38;5050890;28;20482;-66
2023/04/02 11:56:00;;;;;;;1.15;0.63;;;;;;;13.67;78.10;100190.47;5052104;28;20029;-66
2023/04/02 11:58:46;;;;;;;0.68;0.55;;;;;;;13.98;78.20;100200.78;5051650;28;20057;-66
2023/04/02 12:01:54;;;;;;;0.88;0.85;;;;;;;14.42;79.42;100204.97;5052184;28;20359;-67
2023/04/02 12:04:28;;;;;;;0.85;0.80;;;;;;;14.69;76.95;100200.56;5045319;28;20049;-67
2023/04/02 12:07:33;;;;;;;0.95;0.80;;;;;;;15.27;68.50;100208.13;5051852;28;20406;-67
2023/04/02 12:10:03;;;;;;;3.97;0.90;;;;;;;15.93;67.47;100206.28;5051956;28;20037;-67
2023/04/02 12:12:39;;;;;;;1.33;0.80;;;;;;;16.40;64.99;100198.09;5051787;28;20048;-67
2023/04/02 12:15:24;;;;;;;0.93;0.80;;;;;;;17.17;62.35;100205.19;5051873;28;20037;-67
2023/04/02 12:17:50;;;;;;;0.80;0.75;;;;;;;17.82;59.70;100197.66;5040905;28;20116;-66
2023/04/02 12:20:22;;;;;;;0.50;0.40;;;;;;;18.18;57.64;100191.47;5034039;28;20063;-66
2023/04/02 12:22:52;;;;;;;1.27;0.70;;;;;;;17.63;58.43;100206.72;5050642;28;20044;-66
2023/04/02 12:25:17;;;;;;;0.65;0.57;;;;;;;17.23;59.09;100211.56;5050443;28;20147;-66
2023/04/02 12:27:45;;;;;;;1.33;0.82;;;;;;;16.41;63.92;100214.00;5051527;28;20100;-66
2023/04/02 12:30:19;;;;;;;0.70;0.60;;;;;;;16.65;60.98;100222.41;5051696;28;20052;-67
2023/04/02 12:32:46;;;;;;;1.95;0.73;;;;;;;15.82;63.50;100220.34;5051658;28;20076;-67
2023/04/02 12:35:33;;;;;;;0.65;0.50;;;;;;;15.34;68.90;100231.25;5051504;28;20124;-67
2023/04/02 12:37:59;;;;;;;0.38;0.38;;;;;;;15.11;65.49;100233.47;5051366;28;20041;-67
2023/04/02 12:40:26;;;;;;;0.95;0.70;;;;;;;14.88;67.58;100234.66;5051542;28;20028;-66
2023/04/02 12:42:51;;;;;;;0.50;0.50;;;;;;;14.10;69.70;100231.38;5053158;28;20069;-66
2023/04/02 12:45:35;;;;;;;0.85;0.82;;;;;;;14.28;70.44;100236.22;5055396;28;20068;-66
2023/04/02 12:48:04;;;;;;;1.27;0.50;;;;;;;14.24;68.01;100239.47;5055299;28;20106;-66
2023/04/02 12:50:32;;;;;;;0.75;0.50;;;;;;;13.51;76.66;100242.44;5055412;28;20064;-66
2023/04/02 12:52:59;;;;;;;0.55;0.52;;;;;;;13.26;80.14;100251.88;5055498;28;20041;-65
2023/04/02 12:55:26;;;;;;;1.27;0.80;;;;;;;13.08;82.95;100254.94;5055319;28;20505;-65
2023/04/02 12:57:56;;;;;;;1.50;1.00;;;;;;;12.85;87.39;100249.75;5055050;28;20375;-68
2023/04/02 13:00:23;;;;;;;1.63;1.30;;;;;;;12.66;90.78;100267.22;5055305;28;20405;-65
2023/04/02 13:02:51;;;;;;;2.58;1.38;;;;;;;12.42;93.92;100262.97;5054590;28;20445;-66
2023/04/02 13:05:41;;;;;;;2.50;1.65;;;;;;;12.18;96.25;100266.72;5054044;28;20465;-67
2023/04/02 13:08:51;;;;;;;2.10;1.45;;;;;;;12.10;97.94;100266.81;5055208;28;20474;-67
2023/04/02 13:11:16;;;;;;;1.85;1.17;;;;;;;12.09;99.06;100275.03;5054058;28;20041;-68
2023/04/02 13:13:43;;;;;;;1.92;1.33;;;;;;;12.01;99.07;100285.78;5055429;28;20029;-67
2023/04/02 13:16:09;;;;;;;2.75;1.52;;;;;;;11.91;99.93;100276.19;5055350;28;20129;-66
2023/04/02 13:18:51;;;;;;;3.13;1.73;;;;;;;11.82;100.00;100279.94;5054356;28;20036;-65
2023/04/02 13:21:19;;;;;;;3.15;2.00;;;;;;;11.75;100.00;100278.97;5054343;28;20048;-65
2023/04/02 13:23:46;;;;;;;3.47;2.40;;;;;;;11.87;100.00;100282.09;5055398;28;20032;-66
2023/04/02 13:26:23;;;;;;;4.18;2.70;;;;;;;11.72;100.00;100279.31;5055132;28;20041;-66
2023/04/02 13:28:57;;;;;;;2.90;2.13;;;;;;;11.55;100.00;100296.50;5054569;28;20041;-66
2023/04/02 13:31:25;;;;;;;3.50;2.33;;;;;;;11.37;100.00;100304.78;5054641;28;20044;-67
2023/04/02 13:33:50;;;;;;;3.53;2.60;;;;;;;11.40;100.00;100302.56;5054697;28;20126;-67
2023/04/02 13:36:16;;;;;;;2.70;2.15;;;;;;;11.02;100.00;100315.00;5054610;28;20393;-66
2023/04/02 13:38:41;;;;;;;3.40;2.65;;;;;;;10.98;100.00;100308.34;5054406;28;20052;-66
2023/04/02 13:41:22;;;;;;;3.95;2.58;;;;;;;10.75;100.00;100310.91;5054502;28;20047;-67
2023/04/02 13:43:49;;;;;;;5.07;3.05;;;;;;;10.66;100.00;100316.47;5054623;28;20405;-67
2023/04/02 13:46:21;;;;;;;3.45;2.65;;;;;;;10.57;100.00;100313.84;5054427;28;20040;-66
2023/04/02 13:48:48;;;;;;;4.45;3.15;;;;;;;10.66;100.00;100314.63;5054159;28;20036;-66
2023/04/02 13:51:20;;;;;;;4.72;2.95;;;;;;;10.66;100.00;100321.78;5054388;28;20119;-66
2023/04/02 13:53:52;;;;;;;4.20;3.17;;;;;;;10.59;100.00;100322.47;5053904;28;20490;-66
2023/04/02 13:56:18;;;;;;;4.75;3.00;;;;;;;10.47;100.00;100326.50;5054311;28;20040;-66
2023/04/02 13:58:45;;;;;;;6.00;3.88;;;;;;;10.50;100.00;100328.00;5053848;28;20040;-66
2023/04/02 14:01:11;;;;;;;5.70;3.53;;;;;;;10.41;100.00;100324.53;5054184;28;20044;-67
2023/04/02 14:03:37;;;;;;;4.97;3.38;;;;;;;10.42;100.00;100334.16;5054099;28;20064;-67
2023/04/02 14:06:42;;;;;;;4.53;3.40;;;;;;;10.15;100.00;100337.19;5054091;28;20512;-67
2023/04/02 14:09:42;;;;;;;5.28;3.63;;;;;;;10.08;100.00;100339.69;5016653;28;20050;-67
2023/04/02 14:12:21;;;;;;;4.30;3.00;;;;;;;10.17;100.00;100345.81;5025159;28;20490;-67
2023/04/02 14:15:27;;;;;;;3.70;2.63;;;;;;;10.12;100.00;100349.00;5054032;28;20080;-67
2023/04/02 14:18:35;;;;;;;5.28;2.22;;;;;;;10.05;100.00;100359.50;5053684;28;20486;-66
2023/04/02 14:21:26;;;;;;;2.85;1.70;;;;;;;10.27;100.00;100365.16;5046182;28;20095;-67
2023/04/02 14:24:18;;;;;;;3.53;1.35;;;;;;;10.19;100.00;100365.13;5053811;28;20123;-67
2023/04/02 14:27:05;;;;;;;2.70;1.52;;;;;;;10.24;100.00;100370.84;5053562;28;20060;-67
2023/04/02 14:29:50;;;;;;;1.67;1.17;;;;;;;10.29;100.00;100381.78;5053761;28;20036;-67
2023/04/02 14:32:42;;;;;;;0.75;0.75;;;;;;;10.16;100.00;100384.91;5053584;28;20033;-66
2023/04/02 14:35:21;;;;;;;1.13;1.02;;;;;;;10.21;100.00;100395.06;5053634;28;20072;-67
2023/04/02 14:38:19;;;;;;;0.63;0.63;;;;;;;10.10;100.00;100398.91;5053305;28;20044;-67
2023/04/02 14:40:54;;;;;;;2.60;0.85;;;;;;;10.20;100.00;100399.56;5053533;28;20041;-67
2023/04/02 14:43:28;;;;;;;1.30;0.70;;;;;;;10.27;100.00;100400.59;5053582;28;20044;-67
2023/04/02 14:46:02;;;;;;;1.25;0.93;;;;;;;10.10;100.00;100409.53;5053205;28;20049;-67
2023/04/02 14:48:39;;;;;;;1.40;0.98;;;;;;;10.12;100.00;100406.75;5052956;28;20154;-67
2023/04/02 14:51:42;;;;;;;1.58;1.08;;;;;;;10.00;100.00;100415.03;5053223;28;20056;-68
2023/04/02 14:54:27;;;;;;;0.65;0.63;;;;;;;9.98;100.00;100414.38;5053277;28;20040;-68
2023/04/02 14:57:11;;;;;;;0.75;0.75;;;;;;;10.11;100.00;100416.56;5052821;28;20065;-67
2023/04/02 14:59:40;;;;;;;1.40;1.05;;;;;;;10.16;100.00;100424.03;5053050;28;20079;-67
2023/04/02 15:02:21;;;;;;;1.17;1.00;;;;;;;10.04;100.00;100427.03;5053031;28;20028;-67
2023/04/02 15:04:58;;;;;;;1.02;0.85;;;;;;;10.11;100.00;100431.69;5052428;28;20028;-67
2023/04/02 15:07:32;;;;;;;3.30;1.13;;;;;;;10.09;100.00;100431.84;5052425;28;20036;-68
2023/04/02 15:10:25;;;;;;;1.20;1.00;;;;;;;9.93;100.00;100426.50;5053039;28;20033;-67
2023/04/02 15:12:52;;;;;;;1.20;1.10;;;;;;;9.98;100.00;100438.34;5052817;28;20095;-67
2023/04/02 15:15:35;;;;;;;0.90;0.90;;;;;;;9.83;100.00;100439.13;5052641;28;20119;-65
2023/04/02 15:18:01;;;;;;;0.68;0.68;;;;;;;9.84;100.00;100446.94;5052411;28;20082;-66
2023/04/02 15:20:59;;;;;;;1.20;0.77;;;;;;;9.99;100.00;100458.63;5052633;28;20039;-65
2023/04/02 15:23:37;;;;;;;1.67;0.95;;;;;;;9.81;100.00;100449.09;5050580;28;20041;-66
2023/04/02 15:26:08;;;;;;;0.80;0.80;;;;;;;9.78;100.00;100456.44;5052470;28;20033;-65
2023/04/02 15:28:49;;;;;;;6.45;1.33;;;;;;;9.66;100.00;100459.56;5052273;28;20036;-65
2023/04/02 15:31:15;;;;;;;1.00;0.80;;;;;;;9.67;100.00;100464.72;5052410;28;20135;-65
2023/04/02 15:33:42;;;;;;;1.70;1.17;;;;;;;9.44;100.00;100467.09;5052409;28;20045;-65
2023/04/02 15:36:25;;;;;;;1.23;1.13;;;;;;;9.51;100.00;100470.78;5052466;28;20033;-66
2023/04/02 15:39:04;;;;;;;1.67;1.00;;;;;;;9.45;100.00;100474.13;5052036;28;20130;-65
2023/04/02 15:41:50;;;;;;;2.67;1.23;;;;;;;9.35;100.00;100480.53;5052468;28;20375;-65
2023/04/02 15:44:15;;;;;;;1.30;0.98;;;;;;;9.39;100.00;100477.41;5052348;28;20037;-65
2023/04/02 15:47:00;;;;;;;1.50;1.17;;;;;;;9.30;100.00;100485.50;5052162;28;20045;-66
2023/04/02 15:49:34;;;;;;;1.95;0.95;;;;;;;9.17;100.00;100481.44;5052128;28;20032;-65
2023/04/02 15:52:32;;;;;;;1.27;1.17;;;;;;;9.13;100.00;100489.91;5051902;28;20129;-65
2023/04/02 15:55:06;;;;;;;1.52;1.40;;;;;;;9.08;100.00;100497.53;5052198;28;20075;-65
2023/04/02 15:57:50;;;;;;;1.08;0.98;;;;;;;9.03;100.00;100497.97;5051647;28;20037;-65
2023/04/02 16:00:40;;;;;;;2.22;1.40;;;;;;;8.92;100.00;100496.41;5052036;28;20040;-65
2023/04/02 16:03:19;;;;;;;2.60;1.30;;;;;;;8.94;100.00;100507.75;5051872;28;20076;-68
2023/04/02 16:05:50;;;;;;;2.15;1.40;;;;;;;9.00;100.00;100510.72;5051918;28;20040;-68
2023/04/02 16:08:57;;;;;;;1.45;1.33;;;;;;;9.14;100.00;100513.66;5051557;28;20094;-66
2023/04/02 16:11:24;;;;;;;1.90;1.50;;;;;;;9.09;100.00;100515.13;5051819;28;20045;-67
2023/04/02 16:13:53;;;;;;;3.07;1.67;;;;;;;9.07;100.00;100522.44;5051834;28;20120;-66
2023/04/02 16:16:30;;;;;;;2.20;1.33;;;;;;;9.04;100.00;100533.34;5051455;28;20041;-67
2023/04/02 16:19:11;;;;;;;1.17;1.02;;;;;;;9.10;100.00;100543.38;5051396;28;20119;-67
2023/04/02 16:21:46;;;;;;;1.60;1.35;;;;;;;9.10;100.00;100535.41;5051658;28;20037;-67
2023/04/02 16:24:12;;;;;;;2.17;1.17;;;;;;;9.01;100.00;100544.31;5051713;28;20068;-66
2023/04/02 16:26:58;;;;;;;2.53;1.20;;;;;;;9.04;100.00;100557.28;5051549;28;20071;-66
2023/04/02 16:29:55;;;;;;;1.93;1.50;;;;;;;8.98;100.00;100564.88;5058879;28;20036;-67